N750XC LSZB-EBCI
Flight info
| Callsign | N750XC |
|---|---|
| Flight time | 0h 42m |
| Altitude | 40000 |
| Route | AMRID DCT KUBOM DCT TIRSO DCT EDOPI DCT EMT DCT VP746 DCT RAPOR DCT BFS |
| Aircraft | C750/M-SBDE3FGHRWXY/S |
Departure
| Time | 2026-05-08 07:48 |
|---|---|
| Airport | Bern Airport (LSZB) |
Arrival
| Time | 2026-05-08 08:31 |
|---|---|
| Airport | Brussels South Charleroi Airport (EBCI) |
| Time | Latitude | Longitude | Altitude | Speed | Heading |
|---|---|---|---|---|---|
| 2026-05-08 07:35 | 46.91307 | 7.50089 | 1686 ft | 0 kts | 86° |
| 2026-05-08 07:44 | 46.91305 | 7.50092 | 1686 ft | 1 kts | 126° |
| 2026-05-08 07:44 | 46.91274 | 7.50104 | 1679 ft | 12 kts | 163° |
| 2026-05-08 07:44 | 46.91189 | 7.50140 | 1685 ft | 12 kts | 160° |
| 2026-05-08 07:45 | 46.91126 | 7.50214 | 1680 ft | 9 kts | 139° |
| 2026-05-08 07:45 | 46.91112 | 7.50228 | 1679 ft | 1 kts | 159° |
| 2026-05-08 07:45 | 46.91094 | 7.50210 | 1678 ft | 6 kts | 231° |
| 2026-05-08 07:45 | 46.91062 | 7.50166 | 1684 ft | 9 kts | 200° |
| 2026-05-08 07:46 | 46.90986 | 7.50234 | 1683 ft | 17 kts | 141° |
| 2026-05-08 07:46 | 46.90893 | 7.50349 | 1678 ft | 18 kts | 140° |
| 2026-05-08 07:46 | 46.90799 | 7.50463 | 1686 ft | 18 kts | 140° |
| 2026-05-08 07:46 | 46.90732 | 7.50575 | 1701 ft | 6 kts | 131° |
| 2026-05-08 07:47 | 46.90708 | 7.50572 | 1683 ft | 3 kts | 243° |
| 2026-05-08 07:47 | 46.90713 | 7.50566 | 1681 ft | 0 kts | 321° |
| 2026-05-08 07:47 | 46.90744 | 7.50530 | 1700 ft | 26 kts | 321° |
| 2026-05-08 07:47 | 46.91195 | 7.49981 | 1683 ft | 135 kts | 320° |
| 2026-05-08 07:48 | 46.91344 | 7.49798 | 1711 ft | 143 kts | 320° |
| 2026-05-08 07:48 | 46.91644 | 7.49428 | 2005 ft | 136 kts | 320° |
| 2026-05-08 07:48 | 46.91707 | 7.49350 | 2084 ft | 135 kts | 320° |
| 2026-05-08 07:48 | 46.92170 | 7.48779 | 2665 ft | 134 kts | 320° |
| 2026-05-08 07:49 | 46.92893 | 7.47912 | 3384 ft | 141 kts | 320° |
| 2026-05-08 07:49 | 46.93717 | 7.46955 | 3986 ft | 161 kts | 321° |
| 2026-05-08 07:49 | 46.94630 | 7.45863 | 4548 ft | 184 kts | 320° |
| 2026-05-08 07:49 | 46.95695 | 7.44590 | 5138 ft | 210 kts | 320° |
| 2026-05-08 07:50 | 46.96878 | 7.43148 | 5797 ft | 232 kts | 319° |
| 2026-05-08 07:50 | 46.98094 | 7.41435 | 6411 ft | 254 kts | 307° |
| 2026-05-08 07:50 | 46.98758 | 7.38938 | 6947 ft | 275 kts | 273° |
| 2026-05-08 07:50 | 46.98245 | 7.36321 | 8172 ft | 268 kts | 236° |
| 2026-05-08 07:51 | 46.96962 | 7.34348 | 9348 ft | 270 kts | 227° |
| 2026-05-08 07:51 | 46.96096 | 7.31887 | 10259 ft | 279 kts | 255° |
| 2026-05-08 07:51 | 46.96162 | 7.28937 | 10603 ft | 310 kts | 284° |
| 2026-05-08 07:51 | 46.97341 | 7.26133 | 10707 ft | 344 kts | 313° |
| 2026-05-08 07:52 | 46.99462 | 7.24395 | 11269 ft | 357 kts | 342° |
| 2026-05-08 07:52 | 47.01870 | 7.23720 | 12135 ft | 358 kts | 350° |
| 2026-05-08 07:52 | 47.04349 | 7.23167 | 12869 ft | 363 kts | 349° |
| 2026-05-08 07:52 | 47.06842 | 7.22366 | 13639 ft | 367 kts | 343° |
| 2026-05-08 07:53 | 47.09247 | 7.21083 | 14309 ft | 370 kts | 334° |
| 2026-05-08 07:53 | 47.11510 | 7.19269 | 14992 ft | 372 kts | 328° |
| 2026-05-08 07:53 | 47.13740 | 7.17290 | 15649 ft | 377 kts | 328° |
| 2026-05-08 07:53 | 47.16056 | 7.15439 | 16314 ft | 381 kts | 332° |
| 2026-05-08 07:54 | 47.18466 | 7.13750 | 16996 ft | 386 kts | 333° |
| 2026-05-08 07:54 | 47.20883 | 7.11984 | 17700 ft | 390 kts | 331° |
| 2026-05-08 07:54 | 47.23291 | 7.10088 | 18415 ft | 394 kts | 330° |
| 2026-05-08 07:54 | 47.25726 | 7.08195 | 19074 ft | 398 kts | 331° |
| 2026-05-08 07:55 | 47.28209 | 7.06340 | 19774 ft | 401 kts | 331° |
| 2026-05-08 07:55 | 47.30712 | 7.04461 | 20507 ft | 404 kts | 330° |
| 2026-05-08 07:55 | 47.33187 | 7.02558 | 21219 ft | 407 kts | 330° |
| 2026-05-08 07:55 | 47.35709 | 7.00617 | 21903 ft | 411 kts | 330° |
| 2026-05-08 07:56 | 47.38262 | 6.98673 | 22602 ft | 414 kts | 330° |
| 2026-05-08 07:56 | 47.40834 | 6.96716 | 23269 ft | 418 kts | 330° |
| 2026-05-08 07:56 | 47.43426 | 6.94730 | 23892 ft | 421 kts | 330° |
| 2026-05-08 07:56 | 47.46049 | 6.92741 | 24450 ft | 425 kts | 330° |
| 2026-05-08 07:57 | 47.48714 | 6.90805 | 25002 ft | 428 kts | 331° |
| 2026-05-08 07:57 | 47.50494 | 6.89519 | 25364 ft | 430 kts | 331° |
| 2026-05-08 07:57 | 47.53182 | 6.87532 | 25913 ft | 434 kts | 330° |
| 2026-05-08 07:57 | 47.55888 | 6.85500 | 26469 ft | 437 kts | 330° |
| 2026-05-08 07:58 | 47.58611 | 6.83476 | 27018 ft | 440 kts | 330° |
| 2026-05-08 07:58 | 47.61371 | 6.81441 | 27565 ft | 444 kts | 330° |
| 2026-05-08 07:58 | 47.64149 | 6.79380 | 28100 ft | 448 kts | 330° |
| 2026-05-08 07:58 | 47.66944 | 6.77292 | 28657 ft | 451 kts | 330° |
| 2026-05-08 07:59 | 47.69764 | 6.75188 | 29201 ft | 455 kts | 330° |
| 2026-05-08 07:59 | 47.72603 | 6.73072 | 29742 ft | 459 kts | 330° |
| 2026-05-08 07:59 | 47.75473 | 6.70930 | 30220 ft | 463 kts | 330° |
| 2026-05-08 07:59 | 47.78366 | 6.68764 | 30662 ft | 466 kts | 330° |
| 2026-05-08 08:00 | 47.81266 | 6.66539 | 31077 ft | 469 kts | 328° |
| 2026-05-08 08:00 | 47.84089 | 6.64117 | 31728 ft | 467 kts | 327° |
| 2026-05-08 08:00 | 47.86862 | 6.61716 | 32332 ft | 466 kts | 327° |
| 2026-05-08 08:00 | 47.89678 | 6.59301 | 32948 ft | 466 kts | 328° |
| 2026-05-08 08:01 | 47.92487 | 6.56896 | 33572 ft | 465 kts | 328° |
| 2026-05-08 08:01 | 47.95232 | 6.54372 | 34059 ft | 465 kts | 326° |
| 2026-05-08 08:01 | 47.98038 | 6.51801 | 34050 ft | 479 kts | 327° |
| 2026-05-08 08:01 | 48.00925 | 6.49186 | 34052 ft | 491 kts | 327° |
| 2026-05-08 08:02 | 48.03872 | 6.46496 | 34063 ft | 502 kts | 327° |
| 2026-05-08 08:02 | 48.09908 | 6.40931 | 34076 ft | 516 kts | 327° |
| 2026-05-08 08:03 | 48.16083 | 6.35261 | 34075 ft | 524 kts | 327° |
| 2026-05-08 08:03 | 48.22296 | 6.29514 | 34083 ft | 525 kts | 326° |
| 2026-05-08 08:04 | 48.28550 | 6.23961 | 34062 ft | 528 kts | 332° |
| 2026-05-08 08:04 | 48.35567 | 6.20635 | 34063 ft | 532 kts | 348° |
| 2026-05-08 08:05 | 48.42960 | 6.20303 | 34072 ft | 534 kts | 2° |
| 2026-05-08 08:05 | 48.50385 | 6.21036 | 34078 ft | 535 kts | 2° |
| 2026-05-08 08:06 | 48.57823 | 6.21756 | 34082 ft | 535 kts | 2° |
| 2026-05-08 08:06 | 48.65208 | 6.22488 | 34081 ft | 535 kts | 2° |
| 2026-05-08 08:07 | 48.72494 | 6.21957 | 33893 ft | 487 kts | 348° |
| 2026-05-08 08:07 | 48.75510 | 6.20841 | 32366 ft | 415 kts | 340° |
| 2026-05-08 08:07 | 48.78086 | 6.19354 | 29178 ft | 383 kts | 333° |
| 2026-05-08 08:07 | 48.80401 | 6.17418 | 24659 ft | 380 kts | 324° |
| 2026-05-08 08:08 | 48.82527 | 6.14764 | 20318 ft | 412 kts | 313° |
| 2026-05-08 08:08 | 48.84416 | 6.11486 | 17500 ft | 428 kts | 306° |
| 2026-05-08 08:08 | 48.86187 | 6.08034 | 16999 ft | 401 kts | 306° |
| 2026-05-08 08:08 | 48.87842 | 6.04743 | 16921 ft | 395 kts | 305° |
| 2026-05-08 08:09 | 48.89523 | 6.01336 | 17008 ft | 407 kts | 305° |
| 2026-05-08 08:09 | 48.91245 | 5.97901 | 17007 ft | 410 kts | 306° |
| 2026-05-08 08:09 | 48.93010 | 5.94481 | 17015 ft | 412 kts | 307° |
| 2026-05-08 08:09 | 48.94770 | 5.91048 | 16992 ft | 411 kts | 302° |
| 2026-05-08 08:10 | 48.96214 | 5.87333 | 17295 ft | 406 kts | 297° |
| 2026-05-08 08:10 | 48.97809 | 5.83768 | 17130 ft | 417 kts | 311° |
| 2026-05-08 08:10 | 49.00058 | 5.81021 | 17004 ft | 415 kts | 324° |
| 2026-05-08 08:10 | 49.02531 | 5.78725 | 17010 ft | 417 kts | 328° |
| 2026-05-08 08:11 | 49.05068 | 5.76551 | 17008 ft | 417 kts | 329° |
| 2026-05-08 08:11 | 49.07529 | 5.74500 | 16997 ft | 383 kts | 329° |
| 2026-05-08 08:11 | 49.09768 | 5.72662 | 16988 ft | 348 kts | 329° |
| 2026-05-08 08:11 | 49.11925 | 5.70902 | 16985 ft | 363 kts | 329° |
| 2026-05-08 08:12 | 49.14222 | 5.69017 | 16991 ft | 383 kts | 329° |
| 2026-05-08 08:12 | 49.16573 | 5.67083 | 16998 ft | 385 kts | 329° |
| 2026-05-08 08:12 | 49.18936 | 5.65139 | 17001 ft | 386 kts | 329° |
| 2026-05-08 08:12 | 49.21300 | 5.63191 | 17001 ft | 386 kts | 329° |
| 2026-05-08 08:13 | 49.23669 | 5.61236 | 17002 ft | 387 kts | 329° |
| 2026-05-08 08:13 | 49.26040 | 5.59280 | 17003 ft | 387 kts | 329° |
| 2026-05-08 08:13 | 49.28415 | 5.57320 | 17003 ft | 387 kts | 329° |
| 2026-05-08 08:13 | 49.30788 | 5.55360 | 17003 ft | 387 kts | 329° |
| 2026-05-08 08:14 | 49.33162 | 5.53398 | 17000 ft | 387 kts | 329° |
| 2026-05-08 08:14 | 49.35504 | 5.51453 | 16997 ft | 386 kts | 329° |
| 2026-05-08 08:14 | 49.37579 | 5.48874 | 16782 ft | 381 kts | 313° |
| 2026-05-08 08:14 | 49.39654 | 5.46334 | 16507 ft | 384 kts | 324° |
| 2026-05-08 08:15 | 49.41972 | 5.44286 | 16193 ft | 382 kts | 330° |
| 2026-05-08 08:15 | 49.44328 | 5.42421 | 15865 ft | 380 kts | 331° |
| 2026-05-08 08:15 | 49.46683 | 5.40612 | 15537 ft | 378 kts | 331° |
| 2026-05-08 08:15 | 49.49034 | 5.38823 | 15197 ft | 375 kts | 332° |
| 2026-05-08 08:16 | 49.51369 | 5.37049 | 14873 ft | 373 kts | 332° |
| 2026-05-08 08:16 | 49.53697 | 5.35283 | 14555 ft | 372 kts | 332° |
| 2026-05-08 08:16 | 49.56018 | 5.33524 | 14237 ft | 370 kts | 332° |
| 2026-05-08 08:16 | 49.58324 | 5.31779 | 13913 ft | 368 kts | 332° |
| 2026-05-08 08:17 | 49.60618 | 5.30044 | 13573 ft | 366 kts | 332° |
| 2026-05-08 08:17 | 49.62899 | 5.28320 | 13237 ft | 364 kts | 332° |
| 2026-05-08 08:17 | 49.65171 | 5.26598 | 12907 ft | 362 kts | 332° |
| 2026-05-08 08:17 | 49.67392 | 5.24907 | 12586 ft | 360 kts | 332° |
| 2026-05-08 08:18 | 49.69661 | 5.23172 | 12265 ft | 359 kts | 332° |
| 2026-05-08 08:18 | 49.71861 | 5.21487 | 11956 ft | 357 kts | 332° |
| 2026-05-08 08:18 | 49.74075 | 5.19784 | 11648 ft | 355 kts | 332° |
| 2026-05-08 08:18 | 49.76286 | 5.18077 | 11356 ft | 354 kts | 332° |
| 2026-05-08 08:19 | 49.78481 | 5.16377 | 11062 ft | 352 kts | 332° |
| 2026-05-08 08:19 | 49.80669 | 5.14680 | 10759 ft | 351 kts | 332° |
| 2026-05-08 08:19 | 49.82824 | 5.13002 | 10459 ft | 336 kts | 332° |
| 2026-05-08 08:19 | 49.84829 | 5.11443 | 10145 ft | 310 kts | 332° |
| 2026-05-08 08:20 | 49.86700 | 5.09992 | 9796 ft | 293 kts | 332° |
| 2026-05-08 08:20 | 49.88497 | 5.08588 | 9411 ft | 286 kts | 332° |
| 2026-05-08 08:20 | 49.90260 | 5.07194 | 9042 ft | 284 kts | 332° |
| 2026-05-08 08:20 | 49.92012 | 5.05792 | 8675 ft | 282 kts | 331° |
| 2026-05-08 08:21 | 49.93602 | 5.04007 | 8287 ft | 282 kts | 318° |
| 2026-05-08 08:21 | 49.95084 | 5.02025 | 7950 ft | 281 kts | 320° |
| 2026-05-08 08:21 | 49.96664 | 5.00241 | 7620 ft | 281 kts | 326° |
| 2026-05-08 08:21 | 49.98309 | 4.98613 | 7283 ft | 280 kts | 327° |
| 2026-05-08 08:22 | 49.99928 | 4.96945 | 6971 ft | 278 kts | 325° |
| 2026-05-08 08:22 | 50.01514 | 4.95227 | 6652 ft | 277 kts | 325° |
| 2026-05-08 08:22 | 50.03103 | 4.93523 | 6325 ft | 276 kts | 326° |
| 2026-05-08 08:22 | 50.04684 | 4.91850 | 6000 ft | 275 kts | 326° |
| 2026-05-08 08:23 | 50.06226 | 4.90171 | 5678 ft | 273 kts | 324° |
| 2026-05-08 08:23 | 50.07775 | 4.88455 | 5355 ft | 272 kts | 324° |
| 2026-05-08 08:23 | 50.09311 | 4.86752 | 5031 ft | 271 kts | 324° |
| 2026-05-08 08:23 | 50.10844 | 4.85044 | 4709 ft | 269 kts | 324° |
| 2026-05-08 08:24 | 50.12359 | 4.83346 | 4395 ft | 267 kts | 324° |
| 2026-05-08 08:24 | 50.13865 | 4.81654 | 4078 ft | 267 kts | 324° |
| 2026-05-08 08:24 | 50.15369 | 4.79959 | 3784 ft | 265 kts | 324° |
| 2026-05-08 08:24 | 50.16859 | 4.78279 | 3477 ft | 264 kts | 324° |
| 2026-05-08 08:25 | 50.18344 | 4.76597 | 3161 ft | 263 kts | 324° |
| 2026-05-08 08:25 | 50.19818 | 4.74929 | 2997 ft | 255 kts | 324° |
| 2026-05-08 08:25 | 50.21250 | 4.73315 | 2993 ft | 256 kts | 324° |
| 2026-05-08 08:25 | 50.22702 | 4.71679 | 3003 ft | 258 kts | 324° |
| 2026-05-08 08:26 | 50.24167 | 4.70032 | 3009 ft | 260 kts | 324° |
| 2026-05-08 08:26 | 50.25635 | 4.68383 | 3013 ft | 261 kts | 324° |
| 2026-05-08 08:26 | 50.27117 | 4.66746 | 3006 ft | 261 kts | 328° |
| 2026-05-08 08:26 | 50.28746 | 4.65507 | 3001 ft | 260 kts | 337° |
| 2026-05-08 08:27 | 50.30374 | 4.64241 | 2999 ft | 262 kts | 330° |
| 2026-05-08 08:27 | 50.31878 | 4.62641 | 3001 ft | 261 kts | 324° |
| 2026-05-08 08:27 | 50.33340 | 4.60954 | 3010 ft | 262 kts | 324° |
| 2026-05-08 08:27 | 50.34846 | 4.59340 | 3004 ft | 262 kts | 327° |
| 2026-05-08 08:28 | 50.36327 | 4.57797 | 2907 ft | 247 kts | 327° |
| 2026-05-08 08:28 | 50.37710 | 4.56324 | 2627 ft | 235 kts | 326° |
| 2026-05-08 08:28 | 50.39024 | 4.54913 | 2320 ft | 223 kts | 326° |
| 2026-05-08 08:28 | 50.40259 | 4.53592 | 2031 ft | 205 kts | 326° |
| 2026-05-08 08:29 | 50.41318 | 4.52468 | 1774 ft | 170 kts | 327° |
| 2026-05-08 08:29 | 50.42260 | 4.51594 | 1633 ft | 145 kts | 340° |
| 2026-05-08 08:29 | 50.43207 | 4.51236 | 1471 ft | 137 kts | 349° |
| 2026-05-08 08:29 | 50.44139 | 4.50956 | 1290 ft | 135 kts | 350° |
| 2026-05-08 08:30 | 50.45052 | 4.50732 | 1147 ft | 130 kts | 353° |
| 2026-05-08 08:30 | 50.45940 | 4.50590 | 1051 ft | 128 kts | 356° |
| 2026-05-08 08:30 | 50.47011 | 4.48939 | 857 ft | 128 kts | 260° |
| 2026-05-08 08:31 | 50.46687 | 4.47689 | 701 ft | 121 kts | 243° |
| 2026-05-08 08:31 | 50.46335 | 4.46491 | 589 ft | 119 kts | 245° |
| 2026-05-08 08:31 | 50.46076 | 4.45599 | 590 ft | 48 kts | 244° |
| 2026-05-08 08:31 | 50.46006 | 4.45479 | 589 ft | 7 kts | 161° |
| 2026-05-08 08:32 | 50.45957 | 4.45505 | 589 ft | 8 kts | 161° |
| 2026-05-08 08:32 | 50.45925 | 4.45488 | 590 ft | 5 kts | 237° |
| 2026-05-08 08:32 | 50.45897 | 4.45470 | 591 ft | 2 kts | 165° |
| 2026-05-08 08:32 | 50.45895 | 4.45471 | 592 ft | 0 kts | 165° |